createdAt,value
2019-03-03T00:00:14.870Z,99.90
2019-03-03T00:02:43.386Z,99.90
2019-03-03T00:05:11.791Z,99.90
2019-03-03T00:07:40.179Z,99.90
2019-03-03T00:10:10.734Z,99.90
2019-03-03T00:12:39.122Z,99.90
2019-03-03T00:15:09.717Z,99.90
2019-03-03T00:17:38.319Z,99.90
2019-03-03T00:20:09.781Z,99.90
2019-03-03T00:22:38.174Z,99.90
2019-03-03T00:25:08.609Z,99.90
2019-03-03T00:27:37.114Z,99.90
2019-03-03T00:30:20.750Z,99.90
2019-03-03T00:32:49.227Z,99.90
2019-03-03T00:35:17.715Z,99.90
2019-03-03T00:38:04.196Z,99.90
2019-03-03T00:40:49.538Z,99.90
2019-03-03T00:43:21.963Z,99.90
2019-03-03T00:45:52.090Z,99.90
2019-03-03T00:48:31.335Z,99.90
2019-03-03T00:51:13.345Z,99.90
2019-03-03T00:53:55.032Z,99.90
2019-03-03T00:56:31.210Z,99.90
2019-03-03T00:59:19.032Z,99.90
2019-03-03T01:01:51.544Z,99.90
2019-03-03T01:04:21.637Z,99.90
2019-03-03T01:06:51.695Z,99.90
2019-03-03T01:09:24.231Z,99.90
2019-03-03T01:11:56.318Z,99.90
2019-03-03T01:14:26.418Z,99.90
2019-03-03T01:16:59.108Z,99.90
2019-03-03T01:19:29.155Z,99.90
2019-03-03T01:22:05.215Z,99.90
2019-03-03T01:24:35.254Z,99.90
2019-03-03T01:27:03.783Z,99.90
2019-03-03T01:29:32.198Z,99.90
2019-03-03T01:32:00.867Z,99.90
2019-03-03T01:34:29.254Z,99.90
2019-03-03T01:36:57.782Z,99.90
2019-03-03T01:39:26.167Z,99.90
2019-03-03T01:41:54.563Z,99.90
2019-03-03T01:44:22.966Z,99.90
2019-03-03T01:46:51.479Z,99.90
2019-03-03T01:49:19.953Z,99.90
2019-03-03T01:51:48.354Z,99.90
2019-03-03T01:54:16.767Z,99.90
2019-03-03T01:56:45.156Z,99.90
2019-03-03T01:59:13.547Z,99.90
2019-03-03T02:01:42.014Z,99.90
2019-03-03T02:04:10.928Z,99.90
2019-03-03T02:06:39.332Z,99.90
2019-03-03T02:09:10.879Z,99.90
2019-03-03T02:11:39.545Z,99.90
2019-03-03T02:14:07.998Z,99.90
2019-03-03T02:16:36.381Z,99.90
2019-03-03T02:19:05.054Z,99.90
2019-03-03T02:21:33.519Z,99.90
2019-03-03T02:24:01.905Z,99.90
2019-03-03T02:26:30.321Z,99.90
2019-03-03T02:28:58.698Z,99.90
2019-03-03T02:31:27.103Z,99.90
2019-03-03T02:33:55.582Z,99.90
2019-03-03T02:36:23.970Z,99.90
2019-03-03T02:38:52.379Z,99.90
2019-03-03T02:41:20.800Z,99.90
2019-03-03T02:43:49.218Z,99.90
2019-03-03T02:46:17.683Z,99.90
2019-03-03T02:48:46.072Z,99.90
2019-03-03T02:51:14.470Z,99.90
2019-03-03T02:53:43.205Z,99.90
2019-03-03T02:56:11.623Z,99.90
2019-03-03T02:58:40.016Z,99.90
2019-03-03T03:01:10.054Z,99.90
2019-03-03T03:03:38.480Z,99.90
2019-03-03T03:06:23.738Z,99.90
2019-03-03T03:09:10.289Z,99.90
2019-03-03T03:11:58.231Z,99.90
2019-03-03T03:14:50.316Z,99.90
2019-03-03T03:17:38.903Z,99.90
2019-03-03T03:20:08.943Z,99.90
2019-03-03T03:22:53.713Z,99.90
2019-03-03T03:25:23.762Z,99.90
2019-03-03T03:27:54.102Z,99.90
2019-03-03T03:30:29.879Z,99.90
2019-03-03T03:33:02.959Z,99.90
2019-03-03T03:35:49.375Z,99.90
2019-03-03T03:38:34.887Z,99.90
2019-03-03T03:41:10.622Z,99.90
2019-03-03T03:43:43.426Z,99.90
2019-03-03T03:46:16.452Z,99.90
2019-03-03T03:48:46.476Z,99.90
2019-03-03T03:51:25.538Z,99.90
2019-03-03T03:54:19.614Z,99.90
2019-03-03T03:56:49.652Z,99.90
2019-03-03T03:59:19.724Z,99.90
2019-03-03T04:02:02.381Z,99.90
2019-03-03T04:04:49.988Z,99.90
2019-03-03T04:07:20.032Z,99.90
2019-03-03T04:09:50.055Z,99.90
2019-03-03T04:12:20.107Z,99.90
2019-03-03T04:14:50.135Z,99.90
2019-03-03T04:17:23.075Z,99.90
2019-03-03T04:20:15.858Z,99.90
2019-03-03T04:23:00.922Z,99.90
2019-03-03T04:25:49.214Z,99.90
2019-03-03T04:28:34.525Z,99.90
2019-03-03T04:31:04.543Z,99.90
2019-03-03T04:33:34.586Z,99.90
2019-03-03T04:36:13.666Z,99.90
2019-03-03T04:38:59.052Z,99.90
2019-03-03T04:41:29.096Z,99.90
2019-03-03T04:44:01.779Z,99.90
2019-03-03T04:46:40.870Z,99.90
2019-03-03T04:49:10.903Z,99.90
2019-03-03T04:51:57.525Z,99.90
2019-03-03T04:54:44.291Z,99.90
2019-03-03T04:57:19.795Z,99.90
2019-03-03T05:00:07.870Z,99.90
2019-03-03T05:02:40.823Z,99.90
2019-03-03T05:05:10.923Z,99.90
2019-03-03T05:07:43.943Z,99.90
2019-03-03T05:10:22.578Z,99.90
2019-03-03T05:12:52.970Z,99.90
2019-03-03T05:15:22.994Z,99.90
2019-03-03T05:18:05.583Z,99.90
2019-03-03T05:20:47.965Z,99.90
2019-03-03T05:23:16.368Z,99.90
2019-03-03T05:25:44.778Z,99.90
2019-03-03T05:28:32.527Z,99.90
2019-03-03T05:31:01.270Z,99.90
2019-03-03T05:33:29.661Z,99.90
2019-03-03T05:35:58.050Z,99.90
2019-03-03T05:38:26.449Z,99.90
2019-03-03T05:40:54.838Z,99.90
2019-03-03T05:43:23.243Z,99.90
2019-03-03T05:45:51.634Z,99.90
2019-03-03T05:48:20.039Z,99.90
2019-03-03T05:50:48.438Z,99.90
2019-03-03T05:53:16.830Z,99.90
2019-03-03T05:55:45.221Z,99.90
2019-03-03T05:58:13.854Z,99.90
2019-03-03T06:00:42.246Z,99.90
2019-03-03T06:03:10.654Z,99.90
2019-03-03T06:05:39.052Z,99.90
2019-03-03T06:08:07.464Z,99.90
2019-03-03T06:10:35.866Z,99.90
2019-03-03T06:13:04.258Z,99.90
2019-03-03T06:15:32.674Z,99.90
2019-03-03T06:18:01.075Z,99.90
2019-03-03T06:20:29.468Z,99.90
2019-03-03T06:22:57.887Z,99.90
2019-03-03T06:25:26.275Z,99.90
2019-03-03T06:27:54.662Z,99.90
2019-03-03T06:30:23.063Z,99.90
2019-03-03T06:32:51.456Z,99.90
2019-03-03T06:35:20.138Z,99.90
2019-03-03T06:37:48.526Z,99.90
2019-03-03T06:40:16.925Z,99.90
2019-03-03T06:42:45.331Z,99.90
2019-03-03T06:45:14.263Z,99.90
2019-03-03T06:47:42.650Z,99.90
2019-03-03T06:50:12.814Z,99.90
2019-03-03T06:52:41.366Z,99.90
2019-03-03T06:55:10.294Z,99.90
2019-03-03T06:57:38.783Z,99.90
2019-03-03T07:00:10.284Z,99.90
2019-03-03T07:02:38.749Z,99.90
2019-03-03T07:05:08.838Z,99.90
2019-03-03T07:07:37.555Z,99.90
2019-03-03T07:10:09.019Z,99.90
2019-03-03T07:12:37.407Z,99.60
2019-03-03T07:15:08.718Z,99.40
2019-03-03T07:17:37.114Z,99.10
2019-03-03T07:20:08.349Z,99.00
2019-03-03T07:22:36.751Z,98.60
2019-03-03T07:25:11.314Z,98.40
2019-03-03T07:27:39.707Z,98.20
2019-03-03T07:30:11.209Z,98.10
2019-03-03T07:32:43.918Z,97.90
2019-03-03T07:35:12.322Z,97.90
2019-03-03T07:37:40.930Z,97.90
2019-03-03T07:40:09.326Z,98.00
2019-03-03T07:42:37.714Z,97.90
2019-03-03T07:45:09.209Z,98.00
2019-03-03T07:47:37.931Z,97.90
2019-03-03T07:50:07.158Z,97.80
2019-03-03T07:52:35.550Z,97.80
2019-03-03T07:55:05.402Z,97.70
2019-03-03T07:57:33.792Z,97.50
2019-03-03T08:00:02.205Z,97.40
2019-03-03T08:02:30.598Z,97.10
2019-03-03T08:04:59.018Z,97.40
2019-03-03T08:07:27.419Z,97.00
2019-03-03T08:09:55.810Z,97.00
2019-03-03T08:12:24.227Z,96.90
2019-03-03T08:14:52.618Z,96.70
2019-03-03T08:17:21.022Z,96.70
2019-03-03T08:19:49.451Z,96.60
2019-03-03T08:22:17.854Z,96.50
2019-03-03T08:24:46.243Z,96.40
2019-03-03T08:27:14.654Z,96.20
2019-03-03T08:29:43.067Z,96.10
2019-03-03T08:32:11.454Z,95.90
2019-03-03T08:34:39.867Z,95.80
2019-03-03T08:37:08.268Z,95.80
2019-03-03T08:39:36.659Z,95.60
2019-03-03T08:42:23.255Z,95.60
2019-03-03T08:44:53.522Z,95.40
2019-03-03T08:47:38.898Z,95.20
2019-03-03T08:50:13.064Z,95.00
2019-03-03T08:52:46.187Z,94.90
2019-03-03T08:55:16.231Z,94.80
2019-03-03T08:57:49.018Z,94.80
2019-03-03T09:00:27.863Z,94.90
2019-03-03T09:03:00.608Z,94.90
2019-03-03T09:05:36.465Z,94.80
2019-03-03T09:08:22.657Z,94.80
2019-03-03T09:10:52.700Z,94.80
2019-03-03T09:13:31.495Z,94.70
2019-03-03T09:16:01.543Z,94.90
2019-03-03T09:18:49.770Z,94.80
2019-03-03T09:21:26.662Z,94.80
2019-03-03T09:24:05.974Z,94.90
2019-03-03T09:26:58.162Z,94.90
2019-03-03T09:29:30.955Z,94.70
2019-03-03T09:32:03.715Z,94.70
2019-03-03T09:34:33.754Z,94.70
2019-03-03T09:37:03.809Z,94.60
2019-03-03T09:39:33.986Z,94.50
2019-03-03T09:42:06.743Z,94.40
2019-03-03T09:44:45.863Z,94.30
2019-03-03T09:47:16.243Z,94.20
2019-03-03T09:49:46.315Z,93.90
2019-03-03T09:52:16.345Z,93.70
2019-03-03T09:54:58.506Z,93.60
2019-03-03T09:57:34.506Z,93.50
2019-03-03T10:00:19.991Z,93.30
2019-03-03T10:03:02.426Z,93.00
2019-03-03T10:05:38.487Z,93.00
2019-03-03T10:08:11.236Z,93.10
2019-03-03T10:10:47.835Z,92.80
2019-03-03T10:13:26.836Z,92.40
2019-03-03T10:16:00.091Z,92.10
2019-03-03T10:18:46.573Z,92.00
2019-03-03T10:21:19.715Z,91.90
2019-03-03T10:23:52.843Z,91.70
2019-03-03T10:29:17.111Z,91.70
2019-03-03T10:31:59.273Z,91.80
2019-03-03T10:34:35.107Z,91.90
2019-03-03T10:37:07.834Z,92.00
2019-03-03T10:39:46.687Z,91.90
2019-03-03T10:42:22.421Z,91.60
2019-03-03T10:45:10.334Z,91.70
2019-03-03T10:47:42.907Z,91.30
2019-03-03T10:50:18.762Z,91.40
2019-03-03T10:52:48.881Z,91.00
2019-03-03T10:55:21.632Z,91.50
2019-03-03T10:57:54.093Z,91.10
2019-03-03T11:00:36.447Z,91.00
2019-03-03T11:03:06.665Z,90.90
2019-03-03T11:05:42.670Z,91.00
2019-03-03T11:08:12.718Z,90.70
2019-03-03T11:10:43.090Z,90.80
2019-03-03T11:13:31.506Z,91.00
2019-03-03T11:16:04.301Z,91.00
2019-03-03T11:18:34.327Z,90.50
2019-03-03T11:21:04.476Z,90.80
2019-03-03T11:23:34.642Z,90.00
2019-03-03T11:26:04.762Z,90.30
2019-03-03T11:28:50.162Z,90.20
2019-03-03T11:31:36.393Z,90.10
2019-03-03T11:34:22.829Z,90.00
2019-03-03T11:37:21.934Z,89.50
2019-03-03T11:40:01.239Z,89.20
2019-03-03T11:42:33.883Z,89.40
2019-03-03T11:45:04.114Z,89.30
2019-03-03T11:47:34.148Z,89.70
2019-03-03T11:50:10.927Z,89.80
2019-03-03T11:52:40.958Z,90.00
2019-03-03T11:55:11.065Z,89.70
2019-03-03T11:57:49.923Z,89.10
2019-03-03T12:00:20.174Z,89.00
2019-03-03T12:02:54.046Z,88.70
2019-03-03T12:05:39.942Z,88.00
2019-03-03T12:08:09.971Z,87.70
2019-03-03T12:10:40.066Z,87.90
2019-03-03T12:13:10.205Z,88.40
2019-03-03T12:15:45.718Z,88.30
2019-03-03T12:18:18.992Z,87.40
2019-03-03T12:20:49.048Z,87.70
2019-03-03T12:23:28.093Z,87.30
2019-03-03T12:26:16.230Z,86.30
2019-03-03T12:28:55.017Z,86.50
2019-03-03T12:31:25.058Z,85.60
2019-03-03T12:33:57.705Z,85.00
2019-03-03T12:36:30.395Z,84.90
2019-03-03T12:39:03.271Z,84.80
2019-03-03T12:41:42.458Z,84.30
2019-03-03T12:44:12.498Z,84.10
2019-03-03T12:46:45.193Z,82.70
2019-03-03T12:49:15.241Z,82.10
2019-03-03T12:52:01.688Z,81.90
2019-03-03T12:54:46.930Z,82.30
2019-03-03T12:57:33.507Z,81.80
2019-03-03T13:00:03.731Z,81.50
2019-03-03T13:02:36.547Z,80.90
2019-03-03T13:05:09.822Z,81.00
2019-03-03T13:07:42.561Z,81.00
2019-03-03T13:10:18.970Z,80.30
2019-03-03T13:12:51.786Z,80.70
2019-03-03T13:15:38.224Z,80.70
2019-03-03T13:18:16.950Z,81.50
2019-03-03T13:20:47.000Z,82.00
2019-03-03T13:23:35.315Z,81.90
2019-03-03T13:26:07.944Z,81.90
2019-03-03T13:28:43.534Z,81.60
2019-03-03T13:31:16.361Z,81.20
2019-03-03T13:33:51.983Z,80.90
2019-03-03T13:36:28.058Z,81.10
2019-03-03T13:39:14.676Z,81.10
2019-03-03T13:41:47.700Z,81.20
2019-03-03T13:44:16.402Z,80.90
2019-03-03T13:46:44.799Z,81.00
2019-03-03T13:49:13.230Z,81.40
2019-03-03T13:51:41.714Z,81.20
2019-03-03T13:54:10.106Z,81.20
2019-03-03T13:56:38.519Z,81.30
2019-03-03T13:59:06.905Z,81.80
2019-03-03T14:01:35.312Z,82.80
2019-03-03T14:04:03.778Z,83.30
2019-03-03T14:06:32.178Z,83.80
2019-03-03T14:09:00.589Z,84.40
2019-03-03T14:11:29.758Z,84.60
2019-03-03T14:13:58.396Z,83.90
2019-03-03T14:16:26.784Z,84.50
2019-03-03T14:18:55.458Z,83.80
2019-03-03T14:21:24.231Z,83.70
2019-03-03T14:23:52.642Z,83.40
2019-03-03T14:26:21.028Z,83.40
2019-03-03T14:28:49.475Z,83.80
2019-03-03T14:31:19.412Z,83.70
2019-03-03T14:33:48.137Z,83.90
2019-03-03T14:36:17.485Z,83.40
2019-03-03T14:38:45.907Z,83.10
2019-03-03T14:41:14.295Z,82.30
2019-03-03T14:43:42.686Z,82.20
2019-03-03T14:46:11.195Z,81.90
2019-03-03T14:48:39.638Z,80.90
2019-03-03T14:51:08.035Z,81.00
2019-03-03T14:53:36.422Z,80.80
2019-03-03T14:56:04.898Z,80.30
2019-03-03T14:58:33.299Z,80.00
2019-03-03T15:01:02.055Z,80.10
2019-03-03T15:03:30.450Z,80.20
2019-03-03T15:05:59.153Z,80.20
2019-03-03T15:08:27.555Z,80.40
2019-03-03T15:10:55.954Z,80.50
2019-03-03T15:13:24.358Z,80.00
2019-03-03T15:15:52.755Z,80.10
2019-03-03T15:18:21.440Z,80.70
2019-03-03T15:20:49.905Z,81.00
2019-03-03T15:23:18.402Z,81.10
2019-03-03T15:25:46.806Z,81.90
2019-03-03T15:28:15.233Z,82.40
2019-03-03T15:30:43.699Z,83.00
2019-03-03T15:33:12.087Z,83.40
2019-03-03T15:35:40.505Z,83.80
2019-03-03T15:38:09.086Z,83.90
2019-03-03T15:40:37.491Z,83.80
2019-03-03T15:43:05.887Z,84.10
2019-03-03T15:45:34.300Z,84.10
2019-03-03T15:48:02.934Z,84.20
2019-03-03T15:50:31.322Z,84.40
2019-03-03T15:53:00.352Z,84.50
2019-03-03T15:55:30.903Z,84.70
2019-03-03T15:57:59.294Z,84.90
2019-03-03T16:00:36.236Z,85.10
2019-03-03T16:03:05.180Z,85.50
2019-03-03T16:05:33.596Z,86.00
2019-03-03T16:08:02.013Z,85.80
2019-03-03T16:10:30.601Z,86.00
2019-03-03T16:12:59.002Z,86.90
2019-03-03T16:15:28.401Z,86.30
2019-03-03T16:17:56.808Z,86.50
2019-03-03T16:20:25.559Z,86.80
2019-03-03T16:22:54.022Z,87.10
2019-03-03T16:25:23.549Z,87.40
2019-03-03T16:27:52.023Z,87.70
2019-03-03T16:30:21.794Z,88.00
2019-03-03T16:32:50.494Z,88.40
2019-03-03T16:35:19.062Z,88.90
2019-03-03T16:37:47.473Z,89.30
2019-03-03T16:40:23.517Z,89.90
2019-03-03T16:42:51.986Z,89.90
2019-03-03T16:45:20.649Z,90.00
2019-03-03T16:47:49.298Z,90.10
2019-03-03T16:50:19.471Z,90.20
2019-03-03T16:52:48.420Z,90.30
2019-03-03T16:55:18.923Z,90.50
2019-03-03T16:57:47.511Z,90.50
2019-03-03T17:00:21.423Z,90.70
2019-03-03T17:02:50.002Z,90.70
2019-03-03T17:05:20.442Z,90.70
2019-03-03T17:07:48.854Z,90.70
2019-03-03T17:10:17.376Z,90.70
2019-03-03T17:12:45.771Z,90.80
2019-03-03T17:15:21.931Z,90.80
2019-03-03T17:17:50.366Z,90.80
2019-03-03T17:20:18.917Z,90.80
2019-03-03T17:22:47.594Z,90.80
2019-03-03T17:25:21.366Z,90.70
2019-03-03T17:27:49.829Z,90.70
2019-03-03T17:30:20.079Z,90.70
2019-03-03T17:32:48.474Z,90.80
2019-03-03T17:35:17.020Z,90.80
2019-03-03T17:37:45.501Z,90.90
2019-03-03T17:40:18.722Z,91.10
2019-03-03T17:42:47.256Z,91.30
2019-03-03T17:45:18.278Z,91.50
2019-03-03T17:47:46.676Z,91.50
2019-03-03T17:50:16.633Z,91.60
2019-03-03T17:52:45.858Z,91.60
2019-03-03T17:55:15.537Z,91.70
2019-03-03T17:57:44.196Z,91.90
2019-03-03T18:00:18.875Z,91.90
2019-03-03T18:05:25.180Z,91.90
2019-03-03T18:07:53.611Z,92.00
2019-03-03T18:10:22.151Z,92.00
2019-03-03T18:12:50.895Z,92.10
2019-03-03T18:15:19.795Z,92.10
2019-03-03T18:17:50.325Z,92.10
2019-03-03T18:20:22.745Z,92.20
2019-03-03T18:22:51.138Z,92.20
2019-03-03T18:25:21.471Z,92.30
2019-03-03T18:27:49.923Z,92.40
2019-03-03T18:30:24.247Z,92.50
2019-03-03T18:32:52.651Z,92.60
2019-03-03T18:35:21.203Z,93.00
2019-03-03T18:37:49.633Z,93.20
2019-03-03T18:40:24.984Z,93.40
2019-03-03T18:42:53.800Z,93.60
2019-03-03T18:45:23.382Z,93.90
2019-03-03T18:47:51.891Z,94.00
2019-03-03T18:50:25.191Z,94.00
2019-03-03T18:52:53.710Z,94.10
2019-03-03T18:55:22.175Z,94.50
2019-03-03T18:57:50.616Z,94.80
2019-03-03T19:00:31.986Z,95.00
2019-03-03T19:03:00.530Z,95.20
2019-03-03T19:05:29.459Z,95.20
2019-03-03T19:07:57.911Z,95.30
2019-03-03T19:10:28.250Z,95.30
2019-03-03T19:12:56.867Z,95.40
2019-03-03T19:15:25.255Z,95.40
2019-03-03T19:17:53.650Z,95.50
2019-03-03T19:20:22.751Z,95.50
2019-03-03T19:22:51.396Z,95.60
2019-03-03T19:25:20.459Z,95.60
2019-03-03T19:27:48.866Z,95.60
2019-03-03T19:30:25.963Z,95.60
2019-03-03T19:33:18.048Z,95.50
2019-03-03T19:35:46.541Z,95.50
2019-03-03T19:38:15.020Z,95.50
2019-03-03T19:40:43.595Z,95.50
2019-03-03T19:43:12.036Z,95.60
2019-03-03T19:45:43.009Z,95.70
2019-03-03T19:48:11.524Z,95.80
2019-03-03T19:50:40.871Z,96.00
2019-03-03T19:53:09.269Z,96.00
2019-03-03T19:55:37.700Z,96.10
2019-03-03T19:58:06.284Z,96.30
2019-03-03T20:00:38.869Z,96.40
2019-03-03T20:03:07.111Z,96.40
2019-03-03T20:05:35.519Z,96.50
2019-03-03T20:08:04.467Z,96.60
2019-03-03T20:10:32.936Z,96.70
2019-03-03T20:13:01.400Z,96.70
2019-03-03T20:15:29.927Z,96.60
2019-03-03T20:17:58.402Z,96.50
2019-03-03T20:20:26.831Z,96.40
2019-03-03T20:22:55.231Z,96.30
2019-03-03T20:25:24.574Z,96.20
2019-03-03T20:27:52.968Z,96.00
2019-03-03T20:30:22.824Z,95.80
2019-03-03T20:32:51.211Z,95.40
2019-03-03T20:35:19.809Z,95.10
2019-03-03T20:37:48.279Z,94.70
2019-03-03T20:40:21.910Z,94.50
2019-03-03T20:42:50.323Z,94.40
2019-03-03T20:45:30.825Z,94.30
2019-03-03T20:47:59.241Z,94.40
2019-03-03T20:50:27.634Z,94.60
2019-03-03T20:52:56.107Z,94.90
2019-03-03T20:55:29.322Z,95.10
2019-03-03T20:57:57.797Z,95.20
2019-03-03T21:00:27.528Z,95.70
2019-03-03T21:02:56.581Z,95.40
2019-03-03T21:05:25.150Z,95.60
2019-03-03T21:07:53.978Z,95.80
2019-03-03T21:10:24.494Z,95.90
2019-03-03T21:12:52.969Z,95.90
2019-03-03T21:15:21.438Z,96.00
2019-03-03T21:17:50.062Z,96.20
2019-03-03T21:20:19.744Z,96.20
2019-03-03T21:22:48.502Z,96.40
2019-03-03T21:25:18.050Z,96.60
2019-03-03T21:27:46.702Z,96.70
2019-03-03T21:30:28.058Z,96.90
2019-03-03T21:32:56.484Z,97.10
2019-03-03T21:35:25.020Z,97.40
2019-03-03T21:37:53.499Z,97.50
2019-03-03T21:40:23.251Z,97.60
2019-03-03T21:42:51.690Z,97.60
2019-03-03T21:45:21.718Z,97.60
2019-03-03T21:47:50.196Z,97.70
2019-03-03T21:50:20.523Z,97.70
2019-03-03T21:52:48.914Z,97.70
2019-03-03T21:55:17.419Z,97.80
2019-03-03T21:57:46.242Z,97.90
2019-03-03T22:00:17.718Z,98.00
2019-03-03T22:02:46.123Z,98.20
2019-03-03T22:05:14.544Z,98.20
2019-03-03T22:07:42.985Z,98.40
2019-03-03T22:10:11.410Z,98.40
2019-03-03T22:12:39.814Z,98.50
2019-03-03T22:15:10.335Z,98.60
2019-03-03T22:17:38.807Z,98.70
2019-03-03T22:20:09.402Z,98.70
2019-03-03T22:22:37.878Z,98.70
2019-03-03T22:25:11.906Z,98.70
2019-03-03T22:27:40.659Z,98.90
2019-03-03T22:30:14.637Z,98.90
2019-03-03T22:32:43.032Z,98.90
2019-03-03T22:35:11.755Z,98.80
2019-03-03T22:37:40.151Z,98.80
2019-03-03T22:40:14.198Z,98.90
2019-03-03T22:42:42.774Z,98.80
2019-03-03T22:45:13.507Z,98.60
2019-03-03T22:47:41.893Z,98.50
2019-03-03T22:50:12.751Z,98.30
2019-03-03T22:52:41.333Z,98.10
2019-03-03T22:55:12.699Z,98.00
2019-03-03T22:57:41.130Z,97.90
2019-03-03T23:00:26.699Z,97.90
2019-03-03T23:02:55.160Z,97.90
2019-03-03T23:05:38.851Z,98.10
2019-03-03T23:08:10.328Z,97.90
2019-03-03T23:10:56.728Z,97.70
2019-03-03T23:13:33.275Z,97.50
2019-03-03T23:16:04.754Z,97.40
2019-03-03T23:18:38.999Z,97.20
2019-03-03T23:21:34.759Z,97.00
2019-03-03T23:24:24.638Z,96.70
2019-03-03T23:26:53.042Z,96.30
2019-03-03T23:29:21.439Z,96.00
2019-03-03T23:31:49.858Z,95.80
2019-03-03T23:34:18.542Z,95.50
2019-03-03T23:36:46.935Z,95.20
2019-03-03T23:39:15.335Z,95.00
2019-03-03T23:41:43.742Z,94.70
2019-03-03T23:44:12.171Z,94.60
2019-03-03T23:46:40.543Z,94.30
2019-03-03T23:49:08.935Z,94.10
2019-03-03T23:51:37.338Z,93.70
2019-03-03T23:54:05.734Z,93.60
2019-03-03T23:56:34.146Z,93.50
2019-03-03T23:59:02.538Z,93.40
